• Join FlightAware (Why Join?)
  • Login
  • US Flag 
07:46PM EDT


 

Airport Tracker/Info


-or-


 

Live Flight TrackerFlight Track Log ✈ UAL4553 ✈ 29-Apr-2013 ✈ KIAH - KLFT

Flight Track Log - Related Links

Times and Time Zones

All times are in EDT time to prevent confusion due to time zone crossing. See the UAL4553 flight status page for this flight to view local times or setup timezone preferences in your user account.

Time Position Orientation Groundspeed Altitude Reporting Facility
EDT Latitude Longitude Course Direction KTS MPH feet Rate Location/Type
08:24PM 29.9747 -95.3011 90° East 158 182 900  Level Houston Center
08:25PM 29.9464 -95.2683 135° Southeast 218 251 2,500 1,680 Climbing Houston Center
08:26PM 29.9169 -95.2431 143° Southeast 240 276 3,500 1,320 Climbing Houston Center
08:26PM 29.8856 -95.2225 150° Southeast 256 295 3,900 660 Climbing Houston Center
08:27PM 29.8589 -95.2000 144° Southeast 246 283 4,200 1,860 Climbing Houston Center
08:27PM 29.8325 -95.1714 137° Southeast 246 283 5,800 3,060 Climbing Houston Center
08:28PM 29.9834 -94.9119 90° East  Level FlightAware Approximate
08:28PM 29.8319 -95.1131 91° East 269 310 7,400  Level Houston Center
08:28PM 29.8372 -95.0889 76° East 284 327 8,300 2,820 Climbing Houston Center
08:29PM 29.9834 -94.8065 90° East  Level FlightAware Approximate
08:29PM 29.8475 -95.0253 79° East 277 319 10,300  Level Houston Center
08:30PM 29.8678 -94.9300 76° East 301 346 11,500 1,020 Climbing Houston Center
08:31PM 29.8906 -94.8183 77° East 350 403 12,500 1,140 Climbing Houston Center
08:32PM 29.9147 -94.7000 77° East 375 432 13,900 1,320 Climbing Houston Center
08:33PM 29.9397 -94.5783 77° East 385 443 15,300 1,320 Climbing Houston Center
08:34PM 29.9658 -94.4542 76° East 390 449 16,700 1,440 Climbing Houston Center
08:35PM 29.9917 -94.3308 76° East 396 456 18,300 1,560 Climbing Houston Center
08:36PM 30.0139 -94.1758 81° East 407 468 20,000 1,500 Climbing Houston Center
08:37PM 30.0292 -94.0447 82° East 413 475 21,400 1,320 Climbing Houston Center
08:38PM 30.0447 -93.9131 82° East 416 479 22,800 720 Climbing Houston Center
08:39PM 30.0617 -93.7778 82° East 423 487 23,000 60 Climbing Houston Center
08:40PM 30.0789 -93.6319 82° East 451 519 23,000  Level Houston Center
08:41PM 30.0986 -93.4547 83° East 470 541 23,000  Level Houston Center
08:42PM 30.1161 -93.3092 82° East 467 537 23,000 -60 Level Houston Center
08:43PM 30.1331 -93.1631 82° East 464 534 22,900 -60 Descending Houston Center
08:44PM 30.1458 -93.0144 84° East 468 539 22,900 -840 Level Houston Center
08:45PM 30.1525 -92.8686 87° East 459 528 21,200 -2,040 Descending Houston Center
08:46PM 30.1614 -92.6964 87° East 451 519 18,700 -2,400 Descending Houston Center
08:47PM 30.1681 -92.5628 87° East 423 487 16,300 -2,640 Descending Houston Center
08:48PM 30.1739 -92.4342 87° East 406 467 13,400 -2,700 Descending Houston Center
08:49PM 30.1781 -92.3203 88° East 364 419 10,800 -2,520 Descending Houston Center
08:50PM 30.1831 -92.2258 86° East 310 357 8,200 -2,760 Descending Houston Center
08:51PM 30.1483 -92.1472 117° Southeast 281 323 5,200 -2,940 Descending Houston Center
08:52PM 30.1261 -92.0911 115° Southeast 244 281 2,200 -2,940 Descending Houston Center